Latest Weather Observations for Meekatharra

IDW60801

Issued at 11:03 pm WST Friday 9 December 2016 (issued every 30 minutes, with the page automatically refreshed every 10 minutes)

About weather observations | Map of weather stations | Latest weather observations for WA | Other Formats
Station Details ID: 007045 Name: MEEKATHARRA AIRPORT Lat: -26.61 Lon: 118.54 Height: 517.0 m
Data from the previous 72 hours. | See also: Recent months at Meekatharra
Date/Time
WST
Temp
°C
App
Temp
°C
Dew
Point
°C
Rel
Hum
%
Delta-T
°C
Wind Press
QNH
hPa
Press
MSL
hPa
Rain since
9am
mm
Dir  Spd
km/h
Gust
km/h
Spd
kts
Gust
kts
09/11:00pm 30.6 26.1 11.5 30 11.3 NNW 26 32 14 17 1014.4 - 0.0
09/10:30pm 31.1 25.4 11.0 29 11.9 NW 32 41 17 22 1014.4 - 0.0
09/10:17pm 31.4 26.3 10.7 28 12.2 NW 28 43 15 23 1014.5 - 0.0
09/10:00pm 31.2 30.1 10.5 28 12.1 S 7 19 4 10 1014.2 - 0.0
09/09:30pm 32.0 30.8 12.8 31 11.7 WNW 11 20 6 11 1014.2 - 0.0
09/09:00pm 32.2 29.3 9.7 25 13.1 NE 15 24 8 13 1013.7 1009.9 0.0
09/08:30pm 31.7 28.1 10.4 27 12.5 W 20 28 11 15 1013.7 - 0.0
09/08:00pm 33.2 26.4 9.3 23 13.9 E 35 46 19 25 1012.0 - 0.0
09/07:50pm 33.2 26.8 8.6 22 14.1 ENE 32 59 17 32 1012.2 - 0.0
09/07:30pm 35.7 32.5 8.5 19 15.8 ENE 15 20 8 11 1011.5 - 0.0
09/07:00pm 36.6 31.8 4.8 14 17.5 E 19 22 10 12 1011.2 - 0.0
09/06:30pm 36.9 33.5 4.0 13 17.9 ESE 11 15 6 8 1010.9 - 0.0
09/06:00pm 37.9 34.0 3.6 12 18.7 ESE 13 19 7 10 1010.6 1006.7 0.0
09/05:30pm 38.5 35.5 4.1 12 18.9 SE 9 19 5 10 1010.3 - 0.0
09/05:00pm 38.8 35.1 4.3 12 19.0 ESE 13 22 7 12 1010.1 - 0.0
09/04:30pm 38.0 34.5 3.7 12 18.7 NNW 11 15 6 8 1010.2 - 0.0
09/04:00pm 38.3 34.5 3.9 12 18.8 WNW 13 20 7 11 1010.3 - 0.0
09/03:30pm 38.2 35.5 3.8 12 18.8 NW 7 9 4 5 1010.7 - 0.0
09/03:00pm 37.7 34.8 4.6 13 18.3 WSW 9 15 5 8 1011.1 1007.2 0.0
09/02:30pm 38.6 35.1 5.3 13 18.6 NNE 13 28 7 15 1011.4 - 0.0
09/02:00pm 38.9 35.4 5.5 13 18.8 WNW 13 20 7 11 1011.7 - 0.0
09/01:30pm 38.8 35.4 7.5 15 18.1 NW 15 30 8 16 1012.1 - 0.0
09/01:00pm 37.7 33.7 6.6 15 17.7 NNW 17 26 9 14 1012.5 - 0.0
09/12:30pm 36.5 34.0 8.4 18 16.3 NE 11 17 6 9 1012.8 - 0.0
09/12:00pm 35.9 32.0 8.7 19 15.8 N 19 26 10 14 1013.2 1009.4 0.0
09/11:30am 35.0 31.7 9.4 21 15.0 NE 17 24 9 13 1013.8 - 0.0
09/11:00am 34.5 30.7 9.7 22 14.6 NNE 20 26 11 14 1014.3 - 0.0
09/10:30am 33.1 29.5 9.8 24 13.6 N 19 30 10 16 1014.7 - 0.0
09/10:00am 32.9 28.4 8.4 22 14.0 NNE 22 43 12 23 1014.9 - 0.0
09/09:30am 32.8 28.4 7.6 21 14.2 NNE 20 30 11 16 1015.2 - 0.0
09/09:00am 32.2 27.6 6.4 20 14.2 NNE 20 32 11 17 1015.2 1011.4 0.0
09/08:30am 31.0 25.6 4.7 19 14.0 NNE 22 32 12 17 1015.2 - 0.0
09/08:00am 30.0 24.2 4.6 20 13.4 NE 24 35 13 19 1015.2 - 0.0
09/07:30am 28.4 21.8 4.0 21 12.7 NE 28 44 15 24 1015.2 - 0.0
09/07:00am 27.6 20.8 3.3 21 12.4 NE 28 43 15 23 1015.0 - 0.0
09/06:30am 26.4 20.4 3.6 23 11.6 NE 24 37 13 20 1014.8 - 0.0
09/06:00am 25.7 20.1 3.6 24 11.2 NE 22 30 12 16 1014.8 1010.9 0.0
09/05:30am 25.5 20.3 3.5 24 11.1 NE 20 30 11 16 1014.6 - 0.0
09/05:00am 25.5 19.4 2.9 23 11.3 NE 24 35 13 19 1014.1 - 0.0
09/04:30am 25.7 20.0 3.0 23 11.4 NE 22 33 12 18 1013.7 - 0.0
09/04:00am 25.7 20.3 2.4 22 11.6 NE 20 32 11 17 1013.6 - 0.0
09/03:30am 25.6 20.4 2.3 22 11.5 ENE 19 26 10 14 1013.6 - 0.0
09/03:00am 25.3 20.3 1.4 21 11.6 ENE 17 20 9 11 1013.6 1009.8 0.0
09/02:30am 25.7 20.7 1.1 20 11.9 ENE 17 20 9 11 1013.8 - 0.0
09/02:00am 26.2 21.2 1.5 20 12.1 ENE 17 22 9 12 1013.6 - 0.0
09/01:30am 26.8 21.4 1.3 19 12.5 E 19 26 10 14 1013.6 - 0.0
09/01:00am 27.3 21.3 0.9 18 12.9 E 22 28 12 15 1013.4 - 0.0
09/12:30am 27.7 21.7 1.2 18 13.0 E 22 30 12 16 1013.5 - 0.0
09/12:00am 28.2 22.2 0.9 17 13.4 E 22 35 12 19 1013.6 1009.8 0.0
 
Date/Time
WST
Temp
°C
App
Temp
°C
Dew
Point
°C
Rel
Hum
%
Delta-T
°C
Wind Press
QNH
hPa
Press
MSL
hPa
Rain since
9am
mm
Dir  Spd
km/h
Gust
km/h
Spd
kts
Gust
kts
08/11:30pm 28.7 22.2 0.4 16 13.8 E 24 33 13 18 1013.5 - 0.0
08/11:00pm 29.2 22.8 0.8 16 14.0 E 24 32 13 17 1013.6 - 0.0
08/10:30pm 29.6 23.1 0.2 15 14.4 E 24 33 13 18 1013.6 - 0.0
08/10:00pm 30.1 23.5 -0.3 14 14.8 ESE 24 32 13 17 1013.6 - 0.0
08/09:30pm 30.7 24.8 -0.8 13 15.3 ESE 20 26 11 14 1013.6 - 0.0
08/09:00pm 31.4 25.8 -0.3 13 15.6 ESE 19 24 10 13 1013.3 1009.5 0.0
08/08:30pm 32.1 26.5 0.2 13 15.9 ESE 19 24 10 13 1013.1 - 0.0
08/08:00pm 32.7 28.0 0.7 13 16.1 SE 15 22 8 12 1012.9 - 0.0
08/07:30pm 33.3 29.0 1.2 13 16.4 SE 13 20 7 11 1012.6 - 0.0
08/07:00pm 33.9 29.1 0.5 12 16.9 SE 15 20 8 11 1012.3 - 0.0
08/06:30pm 34.6 29.0 1.1 12 17.2 SSE 20 26 11 14 1011.7 - 0.0
08/06:00pm 35.7 30.6 0.7 11 18.0 SSE 17 24 9 13 1011.3 1007.4 0.0
08/05:30pm 36.1 31.8 1.0 11 18.1 ESE 13 22 7 12 1011.1 - 0.0
08/05:00pm 36.8 32.0 0.2 10 18.8 SSE 15 26 8 14 1011.0 - 0.0
08/04:30pm 36.4 31.2 -0.1 10 18.6 S 17 24 9 13 1011.0 - 0.0
08/04:00pm 36.7 31.5 0.1 10 18.7 E 17 28 9 15 1011.0 - 0.0
08/03:30pm 37.4 32.7 0.7 10 19.0 S 15 26 8 14 1011.2 - 0.0
08/03:00pm 36.0 30.9 0.9 11 18.1 S 17 20 9 11 1011.5 1007.7 0.0
08/02:30pm 37.0 32.1 1.7 11 18.5 SE 17 32 9 17 1011.7 - 0.0
08/02:00pm 36.5 32.6 1.3 11 18.3 SSE 11 26 6 14 1012.0 - 0.0
08/01:30pm 36.0 31.5 2.1 12 17.8 ESE 15 28 8 15 1012.2 - 0.0
08/01:00pm 36.1 31.4 3.3 13 17.6 SSE 17 26 9 14 1012.6 - 0.0
08/12:30pm 35.8 30.9 4.2 14 17.1 ESE 19 32 10 17 1012.8 - 0.0
08/12:00pm 35.0 29.6 2.5 13 17.1 ESE 20 35 11 19 1013.2 1009.4 0.0
08/11:30am 34.3 28.8 4.0 15 16.3 E 22 24 12 13 1013.7 - 0.0
08/11:00am 33.3 28.0 3.2 15 15.9 E 20 32 11 17 1014.2 - 0.0
08/10:30am 32.2 27.0 2.3 15 15.4 E 19 30 10 16 1014.6 - 0.0
08/10:00am 31.5 26.5 3.5 17 14.7 E 19 24 10 13 1014.8 - 0.0
08/09:30am 30.0 24.0 3.1 18 13.9 E 24 35 13 19 1014.9 - 0.0
08/09:14am 29.6 22.9 3.5 19 13.5 E 28 46 15 25 1014.9 - 0.0
08/09:00am 29.1 22.3 3.1 19 13.3 E 28 43 15 23 1015.1 1011.3 0.0
08/08:30am 27.7 20.6 3.4 21 12.4 E 30 41 16 22 1015.0 - 0.0
08/08:00am 26.8 19.1 3.3 22 11.9 ESE 33 41 18 22 1015.0 - 0.0
08/07:30am 26.4 19.6 3.0 22 11.8 ESE 28 48 15 26 1014.8 - 0.0
08/07:13am 25.3 17.9 2.1 22 11.4 ESE 30 48 16 26 1014.7 - 0.0
08/07:00am 25.2 18.5 1.3 21 11.6 ESE 26 43 14 23 1014.7 - 0.0
08/06:30am 24.0 16.8 1.0 22 11.0 ESE 28 41 15 22 1014.7 - 0.0
08/06:00am 23.1 17.6 0.9 23 10.5 ESE 19 30 10 16 1014.4 1010.5 0.0
08/05:30am 22.1 17.4 1.2 25 9.9 SE 15 20 8 11 1014.3 - 0.0
08/05:00am 21.6 16.9 0.8 25 9.7 SE 15 20 8 11 1013.9 - 0.0
08/04:30am 21.5 17.2 0.7 25 9.7 SE 13 17 7 9 1013.9 - 0.0
08/04:00am 21.7 17.3 0.3 24 9.9 SE 13 15 7 8 1013.7 - 0.0
08/03:30am 22.5 18.1 0.4 23 10.3 SE 13 17 7 9 1013.7 - 0.0
08/03:00am 23.3 18.9 0.4 22 10.8 ESE 13 17 7 9 1013.5 1009.7 0.0
08/02:30am 23.8 18.6 0.2 21 11.1 SE 17 24 9 13 1013.1 - 0.0
08/02:00am 24.5 18.7 0.1 20 11.5 SSE 20 26 11 14 1012.8 - 0.0
08/01:30am 24.6 18.7 -0.5 19 11.7 SSE 20 32 11 17 1012.7 - 0.0
08/01:00am 24.4 19.1 -0.7 19 11.7 S 17 24 9 13 1012.8 - 0.0
08/12:30am 25.0 20.0 -0.9 18 12.0 S 15 19 8 10 1013.4 - 0.0
08/12:00am 25.6 20.2 -1.2 17 12.4 S 17 20 9 11 1013.6 1009.8 0.0
 
Date/Time
WST
Temp
°C
App
Temp
°C
Dew
Point
°C
Rel
Hum
%
Delta-T
°C
Wind Press
QNH
hPa
Press
MSL
hPa
Rain since
9am
mm
Dir  Spd
km/h
Gust
km/h
Spd
kts
Gust
kts
07/11:30pm 25.9 20.9 -1.0 17 12.6 S 15 19 8 10 1013.8 - 0.0
07/11:00pm 25.4 20.6 -2.2 16 12.6 S 13 15 7 8 1013.8 - 0.0
07/10:30pm 25.5 20.9 -3.9 14 13.0 S 11 13 6 7 1013.9 - 0.0
07/10:00pm 26.7 22.1 -4.0 13 13.7 SSW 11 13 6 7 1013.9 - 0.0
07/09:30pm 27.1 22.7 -5.9 11 14.2 S 9 11 5 6 1013.6 - 0.0
07/09:00pm 28.2 23.8 -6.3 10 14.9 SSW 9 13 5 7 1013.4 1009.6 0.0
07/08:30pm 29.3 24.4 -6.8 9 15.6 S 11 15 6 8 1013.2 - 0.0
07/08:00pm 30.5 25.2 -7.4 8 16.4 SSW 13 17 7 9 1012.9 - 0.0
07/07:30pm 31.3 25.4 -5.3 9 16.5 S 17 20 9 11 1012.6 - 0.0
07/07:00pm 32.2 26.0 -4.6 9 16.9 SSW 19 30 10 16 1012.1 - 0.0
07/06:30pm 33.2 26.7 -5.5 8 17.7 SSW 20 30 11 16 1011.7 - 0.0
07/06:00pm 34.0 27.2 -4.9 8 18.1 SSW 22 33 12 18 1011.5 1007.7 0.0
07/05:30pm 34.6 26.7 -4.4 8 18.3 S 28 39 15 21 1011.2 - 0.0
07/05:00pm 35.2 28.1 -4.0 8 18.6 SSW 24 35 13 19 1011.2 - 0.0
07/04:30pm 35.8 27.7 -3.5 8 18.9 S 30 39 16 21 1011.2 - 0.0
07/04:00pm 35.7 27.9 -3.6 8 18.8 SW 28 44 15 24 1011.2 - 0.0
07/03:30pm 35.9 28.1 -3.5 8 18.9 S 28 39 15 21 1011.4 - 0.0
07/03:00pm 36.0 28.6 -3.4 8 19.0 SSW 26 41 14 22 1011.7 1007.9 0.0
07/02:30pm 36.3 29.7 -3.2 8 19.1 SSW 22 35 12 19 1011.7 - 0.0
07/02:00pm 35.5 28.8 -3.8 8 18.8 SW 22 41 12 22 1012.1 - 0.0
07/01:30pm 36.0 28.6 -3.4 8 19.0 SW 26 41 14 22 1012.4 - 0.0
07/01:00pm 35.2 28.5 -4.0 8 18.6 WSW 22 33 12 18 1012.6 - 0.0
07/12:30pm 35.0 28.9 -2.6 9 18.2 SSW 20 37 11 20 1013.0 - 0.0
07/12:00pm 34.6 29.0 -2.9 9 18.0 SSW 17 30 9 16 1013.2 1009.4 0.0
07/11:30am 32.7 27.5 -2.9 10 16.9 SSW 15 24 8 13 1013.6 - 0.0
07/11:00am 32.9 26.9 -2.7 10 17.0 SSW 19 26 10 14 1013.9 - 0.0
07/10:30am 31.9 26.3 0.1 13 15.8 S 19 32 10 17 1014.2 - 0.0
07/10:00am 31.0 25.5 0.4 14 15.2 SSE 19 28 10 15 1014.5 - 0.0
07/09:30am 29.9 24.7 2.2 17 14.1 S 19 24 10 13 1014.6 - 0.0
07/09:00am 28.6 23.8 2.7 19 13.2 SE 17 24 9 13 1014.6 1010.7 0.0
07/08:30am 27.3 23.1 3.7 22 12.1 SE 15 20 8 11 1014.8 - 0.0
07/08:00am 26.3 20.1 4.1 24 11.4 SSE 26 35 14 19 1014.3 - 0.0
07/07:30am 25.0 19.2 4.2 26 10.6 S 24 32 13 17 1014.7 - 0.0
07/07:00am 23.8 18.2 3.2 26 10.2 S 22 30 12 16 1014.7 - 0.0
07/06:30am 22.9 17.6 1.8 25 10.2 S 19 26 10 14 1014.4 - 0.0
07/06:00am 22.0 16.8 -0.1 23 10.2 S 17 20 9 11 1013.8 1010.0 0.0
07/05:30am 20.8 17.8 -1.7 22 10.0 S 4 11 2 6 1013.7 - 0.0
07/05:00am 21.0 16.3 -2.1 21 10.2 S 13 17 7 9 1012.6 - 0.0
07/04:30am 21.8 16.1 -3.5 18 10.9 S 17 20 9 11 1011.8 - 0.0
07/04:00am 22.3 16.6 -3.9 17 11.2 S 17 20 9 11 1011.5 - 0.0
07/03:30am 23.0 16.9 -4.1 16 11.7 S 19 24 10 13 1011.5 - 0.0
07/03:00am 23.8 17.4 -5.3 14 12.3 S 20 28 11 15 1011.3 1007.4 0.0
07/02:30am 24.5 17.0 -4.7 14 12.6 S 26 35 14 19 1011.0 - 0.0
07/02:00am 24.2 18.1 -8.1 11 13.0 S 17 20 9 11 1010.8 - 0.0
07/01:30am 23.8 18.3 -9.6 10 13.0 S 13 17 7 9 1010.8 - 0.0
07/01:00am 24.1 18.6 -9.4 10 13.2 S 13 17 7 9 1010.6 - 0.0
07/12:30am 25.1 19.2 -10.0 9 13.8 S 15 17 8 9 1010.8 - 0.0
07/12:00am 25.4 19.9 -9.7 9 13.9 S 13 15 7 8 1011.0 1007.1 0.0
 
Date/Time
WST
Temp
°C
App
Temp
°C
Dew
Point
°C
Rel
Hum
%
Delta-T
°C
Wind Press
QNH
hPa
Press
MSL
hPa
Rain since
9am
mm
Dir  Spd
km/h
Gust
km/h
Spd
kts
Gust
kts
06/11:30pm 26.4 20.6 -9.0 9 14.3 SSW 15 19 8 10 1011.1 - 0.0

Other Formats:

Comma delimited format used in spreadsheet applications
http://www.bom.gov.au/fwo/IDW60801/IDW60801.94430.axf

JavaScript Object Notation format (JSON) in row-major order
http://www.bom.gov.au/fwo/IDW60801/IDW60801.94430.json